sensor_id;sensor_type;location;lat;lon;timestamp;pressure;altitude;pressure_sealevel;temperature;humidity
44027;BME280;29696;55.698;37.460;2023-04-28T00:00:57;98934.91;;;13.30;60.23
44027;BME280;29696;55.698;37.460;2023-04-28T00:03:23;98933.59;;;13.26;60.26
44027;BME280;29696;55.698;37.460;2023-04-28T00:05:51;98931.78;;;13.26;60.53
44027;BME280;29696;55.698;37.460;2023-04-28T00:08:18;98937.53;;;13.21;60.62
44027;BME280;29696;55.698;37.460;2023-04-28T00:10:46;98928.94;;;13.19;60.52
44027;BME280;29696;55.698;37.460;2023-04-28T00:13:13;98924.81;;;13.17;60.57
44027;BME280;29696;55.698;37.460;2023-04-28T00:15:39;98930.59;;;13.20;60.57
44027;BME280;29696;55.698;37.460;2023-04-28T00:18:06;98929.78;;;13.20;61.10
44027;BME280;29696;55.698;37.460;2023-04-28T00:20:32;98921.13;;;13.18;60.85
44027;BME280;29696;55.698;37.460;2023-04-28T00:22:58;98921.31;;;13.16;60.91
44027;BME280;29696;55.698;37.460;2023-04-28T00:25:25;98928.44;;;13.16;61.01
44027;BME280;29696;55.698;37.460;2023-04-28T00:27:51;98918.00;;;13.14;61.29
44027;BME280;29696;55.698;37.460;2023-04-28T00:30:17;98917.19;;;13.14;61.25
44027;BME280;29696;55.698;37.460;2023-04-28T00:32:44;98912.84;;;13.13;61.33
44027;BME280;29696;55.698;37.460;2023-04-28T00:35:10;98905.41;;;13.08;61.14
44027;BME280;29696;55.698;37.460;2023-04-28T00:37:38;98911.38;;;13.10;61.42
44027;BME280;29696;55.698;37.460;2023-04-28T00:40:05;98918.34;;;13.11;61.15
44027;BME280;29696;55.698;37.460;2023-04-28T00:42:32;98909.56;;;13.11;61.22
44027;BME280;29696;55.698;37.460;2023-04-28T00:44:58;98911.19;;;13.12;61.34
44027;BME280;29696;55.698;37.460;2023-04-28T00:47:35;98914.34;;;13.15;61.58
44027;BME280;29696;55.698;37.460;2023-04-28T00:50:04;98908.72;;;13.10;61.19
44027;BME280;29696;55.698;37.460;2023-04-28T00:52:36;98909.91;;;13.08;61.30
44027;BME280;29696;55.698;37.460;2023-04-28T00:55:04;98911.06;;;13.05;61.46
44027;BME280;29696;55.698;37.460;2023-04-28T00:57:31;98910.38;;;13.03;61.76
44027;BME280;29696;55.698;37.460;2023-04-28T01:00:00;98915.34;;;13.06;61.57
44027;BME280;29696;55.698;37.460;2023-04-28T01:02:26;98914.69;;;13.04;61.66
44027;BME280;29696;55.698;37.460;2023-04-28T01:04:56;98915.19;;;12.99;62.09
44027;BME280;29696;55.698;37.460;2023-04-28T01:07:23;98912.88;;;12.96;62.13
44027;BME280;29696;55.698;37.460;2023-04-28T01:09:50;98910.38;;;12.95;62.15
44027;BME280;29696;55.698;37.460;2023-04-28T01:12:21;98917.38;;;12.96;62.31
44027;BME280;29696;55.698;37.460;2023-04-28T01:14:50;98906.75;;;12.96;62.20
44027;BME280;29696;55.698;37.460;2023-04-28T01:17:17;98911.22;;;12.95;62.25
44027;BME280;29696;55.698;37.460;2023-04-28T01:19:43;98914.03;;;12.94;62.31
44027;BME280;29696;55.698;37.460;2023-04-28T01:22:10;98911.56;;;12.92;62.56
44027;BME280;29696;55.698;37.460;2023-04-28T01:24:39;98907.25;;;12.91;62.54
44027;BME280;29696;55.698;37.460;2023-04-28T01:27:07;98917.19;;;12.89;62.57
44027;BME280;29696;55.698;37.460;2023-04-28T01:29:33;98913.69;;;12.89;62.55
44027;BME280;29696;55.698;37.460;2023-04-28T01:32:00;98900.78;;;12.86;62.63
44027;BME280;29696;55.698;37.460;2023-04-28T01:34:26;98916.69;;;12.86;62.84
44027;BME280;29696;55.698;37.460;2023-04-28T01:36:53;98914.22;;;12.84;62.94
44027;BME280;29696;55.698;37.460;2023-04-28T01:39:19;98921.97;;;12.86;63.01
44027;BME280;29696;55.698;37.460;2023-04-28T01:41:46;98918.38;;;12.87;62.85
44027;BME280;29696;55.698;37.460;2023-04-28T01:44:12;98920.00;;;12.88;62.80
44027;BME280;29696;55.698;37.460;2023-04-28T01:46:38;98915.72;;;12.87;62.84
44027;BME280;29696;55.698;37.460;2023-04-28T01:49:05;98920.00;;;12.88;62.78
44027;BME280;29696;55.698;37.460;2023-04-28T01:51:33;98921.66;;;12.89;62.62
44027;BME280;29696;55.698;37.460;2023-04-28T01:54:01;98916.34;;;12.89;62.71
44027;BME280;29696;55.698;37.460;2023-04-28T01:56:29;98907.75;;;12.87;62.94
44027;BME280;29696;55.698;37.460;2023-04-28T01:58:56;98896.13;;;12.79;62.87
44027;BME280;29696;55.698;37.460;2023-04-28T02:01:23;98908.41;;;12.81;63.08
44027;BME280;29696;55.698;37.460;2023-04-28T02:03:50;98906.25;;;12.84;63.12
44027;BME280;29696;55.698;37.460;2023-04-28T02:06:16;98895.81;;;12.83;63.12
44027;BME280;29696;55.698;37.460;2023-04-28T02:08:43;98899.13;;;12.85;63.30
44027;BME280;29696;55.698;37.460;2023-04-28T02:11:12;98904.25;;;12.86;63.33
44027;BME280;29696;55.698;37.460;2023-04-28T02:13:38;98904.25;;;12.86;63.38
44027;BME280;29696;55.698;37.460;2023-04-28T02:16:05;98914.03;;;12.94;63.40
44027;BME280;29696;55.698;37.460;2023-04-28T02:18:32;98909.06;;;12.99;63.21
44027;BME280;29696;55.698;37.460;2023-04-28T02:21:07;98904.06;;;13.04;63.32
44027;BME280;29696;55.698;37.460;2023-04-28T02:23:34;98901.06;;;13.15;62.68
44027;BME280;29696;55.698;37.460;2023-04-28T02:26:01;98915.69;;;13.03;63.15
44027;BME280;29696;55.698;37.460;2023-04-28T02:28:29;98914.19;;;13.00;63.37
44027;BME280;29696;55.698;37.460;2023-04-28T02:31:07;98922.47;;;13.06;63.65
44027;BME280;29696;55.698;37.460;2023-04-28T02:33:34;98919.81;;;12.97;63.64
44027;BME280;29696;55.698;37.460;2023-04-28T02:36:02;98914.53;;;12.97;63.67
44027;BME280;29696;55.698;37.460;2023-04-28T02:38:29;98920.66;;;12.98;63.62
44027;BME280;29696;55.698;37.460;2023-04-28T02:41:03;98927.78;;;13.06;64.10
44027;BME280;29696;55.698;37.460;2023-04-28T02:43:30;98925.97;;;12.98;63.76
44027;BME280;29696;55.698;37.460;2023-04-28T02:45:57;98926.13;;;12.96;63.70
44027;BME280;29696;55.698;37.460;2023-04-28T02:48:24;98924.97;;;12.99;63.79
44027;BME280;29696;55.698;37.460;2023-04-28T02:50:52;98935.91;;;13.04;63.75
44027;BME280;29696;55.698;37.460;2023-04-28T02:53:20;98931.94;;;13.08;63.89
44027;BME280;29696;55.698;37.460;2023-04-28T02:55:47;98930.78;;;13.11;63.89
44027;BME280;29696;55.698;37.460;2023-04-28T02:58:14;98927.78;;;13.14;63.96
44027;BME280;29696;55.698;37.460;2023-04-28T03:00:40;98933.91;;;13.14;63.92
44027;BME280;29696;55.698;37.460;2023-04-28T03:03:07;98930.44;;;13.14;64.09
44027;BME280;29696;55.698;37.460;2023-04-28T03:05:34;98929.28;;;13.16;63.86
44027;BME280;29696;55.698;37.460;2023-04-28T03:08:00;98930.75;;;13.19;63.86
44027;BME280;29696;55.698;37.460;2023-04-28T03:10:27;98913.84;;;13.20;64.00
44027;BME280;29696;55.698;37.460;2023-04-28T03:12:54;98921.97;;;13.18;64.14
44027;BME280;29696;55.698;37.460;2023-04-28T03:15:20;98921.13;;;13.18;64.31
44027;BME280;29696;55.698;37.460;2023-04-28T03:17:47;98926.28;;;13.19;64.25
44027;BME280;29696;55.698;37.460;2023-04-28T03:20:14;98940.38;;;13.20;64.13
44027;BME280;29696;55.698;37.460;2023-04-28T03:22:40;98947.50;;;13.28;63.82
44027;BME280;29696;55.698;37.460;2023-04-28T03:25:07;98950.16;;;13.36;63.92
44027;BME280;29696;55.698;37.460;2023-04-28T03:27:41;98951.31;;;13.41;63.75
44027;BME280;29696;55.698;37.460;2023-04-28T03:30:07;98942.00;;;13.45;63.65
44027;BME280;29696;55.698;37.460;2023-04-28T03:32:35;98952.13;;;13.50;63.39
44027;BME280;29696;55.698;37.460;2023-04-28T03:35:01;98948.13;;;13.54;63.19
44027;BME280;29696;55.698;37.460;2023-04-28T03:37:29;98952.13;;;13.58;62.94
44027;BME280;29696;55.698;37.460;2023-04-28T03:39:56;98954.25;;;13.63;63.21
44027;BME280;29696;55.698;37.460;2023-04-28T03:42:22;98949.06;;;13.69;63.06
44027;BME280;29696;55.698;37.460;2023-04-28T03:45:07;98955.19;;;13.78;62.68
44027;BME280;29696;55.698;37.460;2023-04-28T03:47:34;98957.00;;;13.86;62.33
44027;BME280;29696;55.698;37.460;2023-04-28T03:50:01;98961.28;;;13.95;62.14
44027;BME280;29696;55.698;37.460;2023-04-28T03:52:30;98970.06;;;14.04;62.05
44027;BME280;29696;55.698;37.460;2023-04-28T03:54:58;98972.97;;;14.17;61.82
44027;BME280;29696;55.698;37.460;2023-04-28T03:57:24;98961.97;;;14.28;60.92
44027;BME280;29696;55.698;37.460;2023-04-28T03:59:51;98967.13;;;14.30;60.75
44027;BME280;29696;55.698;37.460;2023-04-28T04:02:17;98960.09;;;14.37;60.22
44027;BME280;29696;55.698;37.460;2023-04-28T04:04:43;98957.75;;;14.42;60.31
44027;BME280;29696;55.698;37.460;2023-04-28T04:07:10;98964.69;;;14.43;60.58
44027;BME280;29696;55.698;37.460;2023-04-28T04:09:36;98964.88;;;14.42;60.32
44027;BME280;29696;55.698;37.460;2023-04-28T04:12:04;98965.84;;;14.49;60.57
44027;BME280;29696;55.698;37.460;2023-04-28T04:14:30;98964.16;;;14.48;60.54
44027;BME280;29696;55.698;37.460;2023-04-28T04:16:57;98970.50;;;14.47;60.26
44027;BME280;29696;55.698;37.460;2023-04-28T04:19:24;98973.50;;;14.44;60.38
44027;BME280;29696;55.698;37.460;2023-04-28T04:21:53;98966.34;;;14.44;60.94
44027;BME280;29696;55.698;37.460;2023-04-28T04:24:19;98967.16;;;14.45;60.30
44027;BME280;29696;55.698;37.460;2023-04-28T04:26:46;98983.31;;;14.51;60.84
44027;BME280;29696;55.698;37.460;2023-04-28T04:29:25;98982.78;;;14.48;60.47
44027;BME280;29696;55.698;37.460;2023-04-28T04:31:52;98976.81;;;14.46;60.87
44027;BME280;29696;55.698;37.460;2023-04-28T04:34:18;98980.66;;;14.43;61.30
44027;BME280;29696;55.698;37.460;2023-04-28T04:36:45;98985.84;;;14.36;61.80
44027;BME280;29696;55.698;37.460;2023-04-28T04:39:12;98982.09;;;14.23;61.92
44027;BME280;29696;55.698;37.460;2023-04-28T04:41:38;98989.56;;;14.19;62.86
44027;BME280;29696;55.698;37.460;2023-04-28T04:44:25;98976.78;;;14.14;63.01
44027;BME280;29696;55.698;37.460;2023-04-28T04:46:53;98982.44;;;14.20;63.43
44027;BME280;29696;55.698;37.460;2023-04-28T04:49:20;98985.41;;;14.25;62.92
44027;BME280;29696;55.698;37.460;2023-04-28T04:51:47;98985.38;;;14.33;63.06
44027;BME280;29696;55.698;37.460;2023-04-28T04:54:13;98989.28;;;14.45;63.26
44027;BME280;29696;55.698;37.460;2023-04-28T04:56:42;98995.25;;;14.47;62.53
44027;BME280;29696;55.698;37.460;2023-04-28T04:59:10;99000.38;;;14.57;63.05
44027;BME280;29696;55.698;37.460;2023-04-28T05:01:54;98993.53;;;14.63;62.33
44027;BME280;29696;55.698;37.460;2023-04-28T05:04:20;99004.03;;;14.56;61.68
44027;BME280;29696;55.698;37.460;2023-04-28T05:06:47;99002.88;;;14.50;62.37
44027;BME280;29696;55.698;37.460;2023-04-28T05:09:13;99009.03;;;14.51;63.19
44027;BME280;29696;55.698;37.460;2023-04-28T05:11:40;99006.22;;;14.52;62.91
44027;BME280;29696;55.698;37.460;2023-04-28T05:14:06;99006.06;;;14.54;62.65
44027;BME280;29696;55.698;37.460;2023-04-28T05:16:33;99010.72;;;14.52;62.95
44027;BME280;29696;55.698;37.460;2023-04-28T05:19:09;99015.22;;;14.51;64.10
44027;BME280;29696;55.698;37.460;2023-04-28T05:21:35;99016.50;;;14.47;64.00
44027;BME280;29696;55.698;37.460;2023-04-28T05:24:02;99023.19;;;14.51;65.25
44027;BME280;29696;55.698;37.460;2023-04-28T05:26:29;99017.69;;;14.53;64.43
44027;BME280;29696;55.698;37.460;2023-04-28T05:29:00;99013.09;;;14.70;65.96
44027;BME280;29696;55.698;37.460;2023-04-28T05:31:26;99027.88;;;14.72;65.10
44027;BME280;29696;55.698;37.460;2023-04-28T05:33:54;99009.13;;;14.66;64.68
44027;BME280;29696;55.698;37.460;2023-04-28T05:36:20;99022.13;;;14.60;66.45
44027;BME280;29696;55.698;37.460;2023-04-28T05:38:47;99015.69;;;14.55;66.70
44027;BME280;29696;55.698;37.460;2023-04-28T05:41:14;99013.50;;;14.50;67.02
44027;BME280;29696;55.698;37.460;2023-04-28T05:43:40;99011.19;;;14.55;67.54
44027;BME280;29696;55.698;37.460;2023-04-28T05:46:07;99019.34;;;14.54;67.63
44027;BME280;29696;55.698;37.460;2023-04-28T05:48:33;99017.16;;;14.49;67.31
44027;BME280;29696;55.698;37.460;2023-04-28T05:51:00;99011.38;;;14.54;67.21
44027;BME280;29696;55.698;37.460;2023-04-28T05:53:27;99019.50;;;14.52;67.90
44027;BME280;29696;55.698;37.460;2023-04-28T05:55:53;99021.66;;;14.49;67.86
44027;BME280;29696;55.698;37.460;2023-04-28T05:58:20;99017.53;;;14.46;67.82
44027;BME280;29696;55.698;37.460;2023-04-28T06:00:47;99017.88;;;14.43;67.93
44027;BME280;29696;55.698;37.460;2023-04-28T06:03:13;99023.84;;;14.45;68.01
44027;BME280;29696;55.698;37.460;2023-04-28T06:05:45;99024.88;;;14.36;68.30
44027;BME280;29696;55.698;37.460;2023-04-28T06:08:13;99023.09;;;14.28;68.80
44027;BME280;29696;55.698;37.460;2023-04-28T06:10:40;99018.25;;;14.32;69.38
44027;BME280;29696;55.698;37.460;2023-04-28T06:13:06;99024.06;;;14.75;68.45
44027;BME280;29696;55.698;37.460;2023-04-28T06:15:35;99011.50;;;16.63;63.44
44027;BME280;29696;55.698;37.460;2023-04-28T06:18:02;99016.25;;;17.47;59.62
44027;BME280;29696;55.698;37.460;2023-04-28T06:20:28;99009.47;;;19.56;54.84
44027;BME280;29696;55.698;37.460;2023-04-28T06:22:54;99003.84;;;19.98;53.89
44027;BME280;29696;55.698;37.460;2023-04-28T06:25:21;98990.69;;;19.43;52.20
44027;BME280;29696;55.698;37.460;2023-04-28T06:27:49;99008.16;;;18.86;52.94
44027;BME280;29696;55.698;37.460;2023-04-28T06:30:18;99008.06;;;18.59;54.92
44027;BME280;29696;55.698;37.460;2023-04-28T06:32:48;99008.84;;;18.40;55.68
44027;BME280;29696;55.698;37.460;2023-04-28T06:35:15;99004.50;;;18.39;55.43
44027;BME280;29696;55.698;37.460;2023-04-28T06:37:42;99009.66;;;18.40;55.04
44027;BME280;29696;55.698;37.460;2023-04-28T06:40:10;99009.66;;;18.47;54.21
44027;BME280;29696;55.698;37.460;2023-04-28T06:42:40;98998.09;;;18.33;54.96
44027;BME280;29696;55.698;37.460;2023-04-28T06:45:11;98998.03;;;18.75;54.61
44027;BME280;29696;55.698;37.460;2023-04-28T06:47:38;98999.91;;;18.87;52.98
44027;BME280;29696;55.698;37.460;2023-04-28T06:50:08;99005.13;;;19.09;53.13
44027;BME280;29696;55.698;37.460;2023-04-28T06:52:36;98995.44;;;19.48;52.60
44027;BME280;29696;55.698;37.460;2023-04-28T06:55:06;99003.69;;;19.39;52.43
44027;BME280;29696;55.698;37.460;2023-04-28T06:57:32;98995.44;;;19.14;52.49
44027;BME280;29696;55.698;37.460;2023-04-28T06:59:59;98986.78;;;19.26;52.42
44027;BME280;29696;55.698;37.460;2023-04-28T07:02:25;98999.16;;;19.60;51.53
44027;BME280;29696;55.698;37.460;2023-04-28T07:04:52;98989.84;;;19.82;51.46
44027;BME280;29696;55.698;37.460;2023-04-28T07:07:18;98999.38;;;19.72;51.84
44027;BME280;29696;55.698;37.460;2023-04-28T07:09:45;98992.78;;;19.48;51.56
44027;BME280;29696;55.698;37.460;2023-04-28T07:12:11;99000.38;;;19.11;52.45
44027;BME280;29696;55.698;37.460;2023-04-28T07:14:39;99000.38;;;18.91;53.70
44027;BME280;29696;55.698;37.460;2023-04-28T07:17:06;99001.47;;;18.55;54.45
44027;BME280;29696;55.698;37.460;2023-04-28T07:19:32;99011.59;;;18.18;54.84
44027;BME280;29696;55.698;37.460;2023-04-28T07:21:59;99009.56;;;17.86;55.98
44027;BME280;29696;55.698;37.460;2023-04-28T07:24:25;99012.81;;;17.53;56.83
44027;BME280;29696;55.698;37.460;2023-04-28T07:26:52;99007.31;;;17.33;58.33
44027;BME280;29696;55.698;37.460;2023-04-28T07:29:18;99012.41;;;17.28;58.94
44027;BME280;29696;55.698;37.460;2023-04-28T07:31:45;99014.19;;;17.21;59.50
44027;BME280;29696;55.698;37.460;2023-04-28T07:34:11;99024.44;;;17.17;59.62
44027;BME280;29696;55.698;37.460;2023-04-28T07:36:38;99024.56;;;17.09;59.82
44027;BME280;29696;55.698;37.460;2023-04-28T07:39:04;99017.75;;;17.06;60.34
44027;BME280;29696;55.698;37.460;2023-04-28T07:41:36;99030.16;;;17.14;60.52
44027;BME280;29696;55.698;37.460;2023-04-28T07:44:06;99025.81;;;17.13;60.47
44027;BME280;29696;55.698;37.460;2023-04-28T07:46:33;99029.09;;;17.08;60.40
44027;BME280;29696;55.698;37.460;2023-04-28T07:49:00;99030.41;;;16.98;59.93
44027;BME280;29696;55.698;37.460;2023-04-28T07:51:27;99020.16;;;16.80;60.43
44027;BME280;29696;55.698;37.460;2023-04-28T07:53:54;99019.50;;;16.78;60.83
44027;BME280;29696;55.698;37.460;2023-04-28T07:56:20;99024.28;;;16.82;61.16
44027;BME280;29696;55.698;37.460;2023-04-28T07:58:47;99026.09;;;16.97;60.62
44027;BME280;29696;55.698;37.460;2023-04-28T08:01:14;99024.56;;;17.09;60.11
44027;BME280;29696;55.698;37.460;2023-04-28T08:03:40;99019.94;;;16.96;60.67
44027;BME280;29696;55.698;37.460;2023-04-28T08:06:07;99023.47;;;16.82;60.82
44027;BME280;29696;55.698;37.460;2023-04-28T08:08:33;99020.34;;;16.78;61.37
44027;BME280;29696;55.698;37.460;2023-04-28T08:11:00;99036.53;;;16.62;61.89
44027;BME280;29696;55.698;37.460;2023-04-28T08:13:27;99030.13;;;16.41;62.47
44027;BME280;29696;55.698;37.460;2023-04-28T08:15:54;99030.09;;;16.20;63.37
44027;BME280;29696;55.698;37.460;2023-04-28T08:18:26;99028.97;;;16.00;64.20
44027;BME280;29696;55.698;37.460;2023-04-28T08:20:53;99022.81;;;15.99;64.59
44027;BME280;29696;55.698;37.460;2023-04-28T08:23:19;99026.13;;;16.16;64.76
44027;BME280;29696;55.698;37.460;2023-04-28T08:25:46;99030.00;;;16.28;65.37
44027;BME280;29696;55.698;37.460;2023-04-28T08:28:14;99034.75;;;16.18;65.49
44027;BME280;29696;55.698;37.460;2023-04-28T08:30:41;99032.59;;;16.07;66.05
44027;BME280;29696;55.698;37.460;2023-04-28T08:33:07;99040.28;;;15.87;66.56
44027;BME280;29696;55.698;37.460;2023-04-28T08:35:34;99038.50;;;15.79;67.93
44027;BME280;29696;55.698;37.460;2023-04-28T08:38:00;99036.41;;;15.74;68.20
44027;BME280;29696;55.698;37.460;2023-04-28T08:40:27;99035.69;;;15.81;68.28
44027;BME280;29696;55.698;37.460;2023-04-28T08:42:54;99042.28;;;15.85;67.67
44027;BME280;29696;55.698;37.460;2023-04-28T08:45:23;99037.78;;;15.85;67.74
44027;BME280;29696;55.698;37.460;2023-04-28T08:47:50;99045.97;;;15.84;67.99
44027;BME280;29696;55.698;37.460;2023-04-28T08:50:21;99041.47;;;15.99;67.69
44027;BME280;29696;55.698;37.460;2023-04-28T08:52:51;99051.47;;;15.97;67.23
44027;BME280;29696;55.698;37.460;2023-04-28T08:55:18;99032.00;;;16.11;67.20
44027;BME280;29696;55.698;37.460;2023-04-28T08:57:49;99034.75;;;16.33;66.66
44027;BME280;29696;55.698;37.460;2023-04-28T09:00:19;99048.81;;;16.27;66.12
44027;BME280;29696;55.698;37.460;2023-04-28T09:02:46;99045.69;;;16.23;66.12
44027;BME280;29696;55.698;37.460;2023-04-28T09:05:13;99038.66;;;16.01;66.46
44027;BME280;29696;55.698;37.460;2023-04-28T09:07:40;99038.28;;;15.89;67.21
44027;BME280;29696;55.698;37.460;2023-04-28T09:10:35;99048.56;;;16.22;67.78
44027;BME280;29696;55.698;37.460;2023-04-28T09:13:03;99046.63;;;16.15;67.60
44027;BME280;29696;55.698;37.460;2023-04-28T09:15:34;99044.16;;;16.29;67.31
44027;BME280;29696;55.698;37.460;2023-04-28T09:18:02;99036.50;;;16.26;66.13
44027;BME280;29696;55.698;37.460;2023-04-28T09:20:31;99037.03;;;16.51;65.73
44027;BME280;29696;55.698;37.460;2023-04-28T09:23:18;99039.94;;;17.07;64.96
44027;BME280;29696;55.698;37.460;2023-04-28T09:26:06;99042.22;;;17.31;64.08
44027;BME280;29696;55.698;37.460;2023-04-28T09:28:34;99038.72;;;17.09;64.17
44027;BME280;29696;55.698;37.460;2023-04-28T09:31:01;99045.09;;;17.30;62.60
44027;BME280;29696;55.698;37.460;2023-04-28T09:33:28;99036.41;;;17.49;62.32
44027;BME280;29696;55.698;37.460;2023-04-28T09:35:55;99036.69;;;17.61;61.62
44027;BME280;29696;55.698;37.460;2023-04-28T09:38:22;99032.03;;;17.70;61.20
44027;BME280;29696;55.698;37.460;2023-04-28T09:41:08;99028.50;;;18.19;61.42
44027;BME280;29696;55.698;37.460;2023-04-28T09:43:35;99027.44;;;17.85;61.41
44027;BME280;29696;55.698;37.460;2023-04-28T09:46:03;99036.69;;;17.83;61.32
44027;BME280;29696;55.698;37.460;2023-04-28T09:48:36;99047.03;;;17.71;61.23
44027;BME280;29696;55.698;37.460;2023-04-28T09:51:06;99034.94;;;17.47;61.74
44027;BME280;29696;55.698;37.460;2023-04-28T09:53:33;99036.38;;;17.21;62.67
44027;BME280;29696;55.698;37.460;2023-04-28T09:56:02;99038.63;;;16.96;63.19
44027;BME280;29696;55.698;37.460;2023-04-28T09:58:30;99038.28;;;16.70;64.20
44027;BME280;29696;55.698;37.460;2023-04-28T10:01:00;99038.78;;;16.58;65.56
44027;BME280;29696;55.698;37.460;2023-04-28T10:03:28;99054.41;;;16.47;65.77
44027;BME280;29696;55.698;37.460;2023-04-28T10:05:57;99052.66;;;16.39;65.90
44027;BME280;29696;55.698;37.460;2023-04-28T10:08:25;99052.22;;;16.35;66.73
44027;BME280;29696;55.698;37.460;2023-04-28T10:10:52;99052.59;;;16.32;66.57
44027;BME280;29696;55.698;37.460;2023-04-28T10:13:21;99070.50;;;16.24;68.05
44027;BME280;29696;55.698;37.460;2023-04-28T10:15:50;99074.56;;;16.05;70.21
44027;BME280;29696;55.698;37.460;2023-04-28T10:18:16;99065.06;;;15.72;71.60
44027;BME280;29696;55.698;37.460;2023-04-28T10:20:59;99072.91;;;15.66;73.47
44027;BME280;29696;55.698;37.460;2023-04-28T10:27:12;99077.44;;;15.19;77.63
44027;BME280;29696;55.698;37.460;2023-04-28T10:29:39;99066.22;;;15.09;79.83
44027;BME280;29696;55.698;37.460;2023-04-28T10:32:19;99077.75;;;15.24;80.02
44027;BME280;29696;55.698;37.460;2023-04-28T10:34:46;99070.81;;;14.92;78.89
44027;BME280;29696;55.698;37.460;2023-04-28T10:37:14;99076.59;;;14.65;76.94
44027;BME280;29696;55.698;37.460;2023-04-28T10:40:29;99083.56;;;14.66;78.00
44027;BME280;29696;55.698;37.460;2023-04-28T10:42:53;99079.38;;;14.32;78.10
44027;BME280;29696;55.698;37.460;2023-04-28T10:49:08;99069.47;;;14.65;83.92
44027;BME280;29696;55.698;37.460;2023-04-28T10:51:34;99067.38;;;14.52;80.55
44027;BME280;29696;55.698;37.460;2023-04-28T10:54:07;99070.44;;;14.72;79.79
44027;BME280;29696;55.698;37.460;2023-04-28T10:56:33;99083.84;;;14.79;78.07
44027;BME280;29696;55.698;37.460;2023-04-28T10:59:23;99082.41;;;14.99;76.68
44027;BME280;29696;55.698;37.460;2023-04-28T11:01:55;99086.25;;;14.97;77.69
44027;BME280;29696;55.698;37.460;2023-04-28T11:05:10;99084.38;;;15.05;78.77
44027;BME280;29696;55.698;37.460;2023-04-28T11:07:37;99081.78;;;14.89;80.32
44027;BME280;29696;55.698;37.460;2023-04-28T11:10:04;99090.47;;;14.83;80.48
44027;BME280;29696;55.698;37.460;2023-04-28T11:12:30;99076.69;;;14.79;81.37
44027;BME280;29696;55.698;37.460;2023-04-28T11:15:10;99082.09;;;14.94;81.33
44027;BME280;29696;55.698;37.460;2023-04-28T11:17:40;99082.22;;;14.78;79.24
44027;BME280;29696;55.698;37.460;2023-04-28T11:20:11;99085.06;;;14.68;77.27
44027;BME280;29696;55.698;37.460;2023-04-28T11:22:39;99077.41;;;14.73;77.39
44027;BME280;29696;55.698;37.460;2023-04-28T11:25:06;99075.94;;;14.63;75.19
44027;BME280;29696;55.698;37.460;2023-04-28T11:27:33;99078.25;;;14.66;75.78
44027;BME280;29696;55.698;37.460;2023-04-28T11:30:00;99075.53;;;14.82;77.56
44027;BME280;29696;55.698;37.460;2023-04-28T11:32:30;99076.63;;;14.96;76.61
44027;BME280;29696;55.698;37.460;2023-04-28T11:34:57;99079.00;;;15.14;75.55
44027;BME280;29696;55.698;37.460;2023-04-28T11:38:00;99084.59;;;15.65;75.06
44027;BME280;29696;55.698;37.460;2023-04-28T11:40:29;99074.47;;;15.83;73.18
44027;BME280;29696;55.698;37.460;2023-04-28T11:47:54;99075.03;;;16.23;71.46
44027;BME280;29696;55.698;37.460;2023-04-28T11:50:36;99080.94;;;16.33;72.28
44027;BME280;29696;55.698;37.460;2023-04-28T11:53:03;99075.31;;;16.13;72.31
44027;BME280;29696;55.698;37.460;2023-04-28T11:55:29;99081.75;;;16.19;73.22
44027;BME280;29696;55.698;37.460;2023-04-28T11:58:21;99086.16;;;16.27;72.58
44027;BME280;29696;55.698;37.460;2023-04-28T12:01:27;99083.84;;;16.09;70.88
44027;BME280;29696;55.698;37.460;2023-04-28T12:03:54;99082.75;;;15.65;70.99
44027;BME280;29696;55.698;37.460;2023-04-28T12:11:27;99080.81;;;15.36;72.10
44027;BME280;29696;55.698;37.460;2023-04-28T12:14:06;99084.41;;;15.43;73.43
44027;BME280;29696;55.698;37.460;2023-04-28T12:16:42;99080.25;;;15.26;73.79
44027;BME280;29696;55.698;37.460;2023-04-28T12:19:10;99082.75;;;14.96;73.35
44027;BME280;29696;55.698;37.460;2023-04-28T12:21:38;99097.47;;;14.84;73.84
44027;BME280;29696;55.698;37.460;2023-04-28T12:24:34;99098.06;;;14.94;74.84
44027;BME280;29696;55.698;37.460;2023-04-28T12:27:19;99096.34;;;14.78;75.32
44027;BME280;29696;55.698;37.460;2023-04-28T12:29:50;99096.94;;;14.49;75.34
44027;BME280;29696;55.698;37.460;2023-04-28T12:32:17;99101.56;;;14.47;75.82
44027;BME280;29696;55.698;37.460;2023-04-28T12:34:45;99098.78;;;14.41;75.56
44027;BME280;29696;55.698;37.460;2023-04-28T12:37:12;99088.34;;;14.31;75.84
44027;BME280;29696;55.698;37.460;2023-04-28T12:39:39;99098.31;;;14.29;76.21
44027;BME280;29696;55.698;37.460;2023-04-28T12:42:06;99093.53;;;14.24;75.96
44027;BME280;29696;55.698;37.460;2023-04-28T12:44:34;99092.53;;;14.25;75.89
44027;BME280;29696;55.698;37.460;2023-04-28T12:47:06;99101.13;;;14.35;76.35
44027;BME280;29696;55.698;37.460;2023-04-28T12:49:36;99103.63;;;14.37;75.64
44027;BME280;29696;55.698;37.460;2023-04-28T12:52:04;99096.59;;;14.44;75.14
44027;BME280;29696;55.698;37.460;2023-04-28T12:54:31;99096.59;;;14.52;74.33
44027;BME280;29696;55.698;37.460;2023-04-28T12:56:58;99095.19;;;14.73;74.03
44027;BME280;29696;55.698;37.460;2023-04-28T12:59:24;99096.47;;;14.85;73.66
44027;BME280;29696;55.698;37.460;2023-04-28T13:01:51;99090.13;;;14.86;73.43
44027;BME280;29696;55.698;37.460;2023-04-28T13:04:17;99096.34;;;14.78;73.02
44027;BME280;29696;55.698;37.460;2023-04-28T13:06:44;99100.19;;;14.68;73.40
44027;BME280;29696;55.698;37.460;2023-04-28T13:09:12;99100.88;;;14.61;73.97
44027;BME280;29696;55.698;37.460;2023-04-28T13:11:40;99096.94;;;14.57;73.16
44027;BME280;29696;55.698;37.460;2023-04-28T13:14:07;99102.25;;;14.49;73.02
44027;BME280;29696;55.698;37.460;2023-04-28T13:16:34;99114.25;;;14.37;73.15